»·PEaware :: N716TH L88-KSBP

N716TH :: L88-KSBP

FLIGHT INFORMATION

Flight Status: Arrived
Operator: Privately registered:
United States
More flights under this callsign
Pilot: Danny R. (17997)
Aircraft: CESSNA 172 SKYHAWK
(C172)
More flights by this aircraft type
Origin: L88 New Cuyama
United States
Destination: KSBP San Luis Co Regl
United States
More flights between these airports :: More routes between these airports
Route:
File this flight plan on PilotEdge
Remarks: CAT2
Altitude:
(Current/Filed)
6,500ft
Speed:
(Current/Filed)
100kts
Departed: 24-Jan-18 01:46 PM
Arrived: 24-Jan-18 02:21 PM
Distance/Time
Traveled:
50nm/0:34
Distance/Time
To Go:
Arrived

Flight Plot

Page will automatically refresh every two minutes.


Map Options




Map Legend


Flown Route
Filed Route
Departure Airport
Arrival Airport
Navaid (VOR, NDB)
Fix

Horizontal Profiles

Position Reports

Time Latitude Longitude Heading Altitude Ground
Speed
24-Jan-18 13:37 34.942783 -119.690122 196 2207ft 0kts
24-Jan-18 13:38 34.942783 -119.690122 196 2207ft 0kts
24-Jan-18 13:39 34.942783 -119.690122 196 2207ft 0kts
24-Jan-18 13:40 34.942783 -119.690122 196 2207ft 0kts
24-Jan-18 13:41 34.942783 -119.690122 196 2207ft 0kts
24-Jan-18 13:42 34.942783 -119.690122 196 2207ft 0kts
24-Jan-18 13:43 34.942737 -119.690263 292 2207ft 0kts
24-Jan-18 13:44 34.942737 -119.690263 291 2207ft 0kts
24-Jan-18 13:45 34.942741 -119.690272 296 2207ft 1kts
24-Jan-18 13:46 34.942929 -119.690768 291 2207ft 0kts
24-Jan-18 13:47 34.942929 -119.690767 291 2207ft 0kts
24-Jan-18 13:48 34.942929 -119.690767 291 2207ft 0kts
24-Jan-18 13:49 34.942737 -119.691162 207 2207ft 2kts
24-Jan-18 13:50 34.939770 -119.685171 116 2206ft 32kts
24-Jan-18 13:51 34.937776 -119.680267 298 2217ft 0kts
24-Jan-18 13:52 34.942343 -119.690606 291 2371ft 79kts
24-Jan-18 13:53 34.953614 -119.712726 295 3163ft 76kts
24-Jan-18 13:54 34.963743 -119.735295 278 3889ft 75kts
24-Jan-18 13:55 34.968561 -119.759969 268 4586ft 74kts
24-Jan-18 13:56 34.973132 -119.784932 275 5257ft 76kts
24-Jan-18 13:57 34.982274 -119.808788 313 5898ft 83kts
24-Jan-18 13:58 35.005633 -119.816928 338 6455ft 93kts
24-Jan-18 13:59 35.030522 -119.829357 337 6734ft 99kts
24-Jan-18 14:00 35.057218 -119.845129 335 6541ft 111kts
24-Jan-18 14:01 35.083973 -119.860450 332 6544ft 103kts
24-Jan-18 14:02 35.097330 -119.888898 285 6539ft 104kts
24-Jan-18 14:03 35.104153 -119.923209 285 6545ft 104kts
24-Jan-18 14:04 35.112749 -119.956837 288 6551ft 103kts
24-Jan-18 14:05 35.120636 -119.990872 287 6558ft 104kts
24-Jan-18 14:06 35.128346 -120.024865 287 6563ft 104kts
24-Jan-18 14:07 35.136030 -120.058870 287 6568ft 104kts
24-Jan-18 14:08 35.143687 -120.092849 287 6573ft 104kts
24-Jan-18 14:09 35.151364 -120.126940 286 6571ft 103kts
24-Jan-18 14:10 35.158909 -120.160433 286 6527ft 102kts
24-Jan-18 14:11 35.163886 -120.194565 284 6478ft 102kts
24-Jan-18 14:12 35.170744 -120.228374 282 6422ft 103kts
24-Jan-18 14:13 35.178122 -120.263068 282 6345ft 105kts
24-Jan-18 14:14 35.185492 -120.297574 282 6240ft 104kts
24-Jan-18 14:15 35.188710 -120.330521 272 5979ft 88kts
24-Jan-18 14:16 35.187351 -120.358809 261 5361ft 83kts
24-Jan-18 14:17 35.188968 -120.387293 276 4747ft 84kts
24-Jan-18 14:18 35.193303 -120.413829 278 4450ft 75kts
24-Jan-18 14:19 35.198384 -120.442646 279 4467ft 91kts
24-Jan-18 14:20 35.203393 -120.470777 279 4463ft 77kts
24-Jan-18 14:21 35.210080 -120.498640 290 4050ft 100kts
24-Jan-18 14:22 35.211895 -120.534133 262 3325ft 104kts
24-Jan-18 14:23 35.202855 -120.567379 251 2444ft 98kts
24-Jan-18 14:24 35.211635 -120.593654 301 1624ft 85kts
24-Jan-18 14:25 35.223906 -120.617170 296 780ft 70kts
24-Jan-18 14:26 35.233851 -120.634687 301 225ft 53kts
24-Jan-18 14:27 35.237858 -120.640395 73 215ft 0kts
24-Jan-18 14:28 35.237858 -120.640394 73 215ft 0kts
24-Jan-18 14:29 35.237451 -120.638202 71 215ft 10kts
24-Jan-18 14:30 35.238191 -120.638180 272 215ft 0kts
24-Jan-18 14:31 35.238191 -120.638180 272 215ft 0kts

Navigation Log

Ident Type
1. L88 Airport
2. KSBP Airport